Strona główna
METAR-TAF:

METAR-TAF

Lotnisko :

Port lotniczy Lugano

Lugano, Szwajcaria

Szerokość geograficzna: 46-00N, Długość geograficzna: 008-58E, wysokość: 273 m

Aktualna obserwacja pogody

Raport powstał 17 minut temu, godzina 05:50 UTC
Wiatr 3 kt z kierunków zmiennych
Temperatura 5°C
Wilgotność 100%
Ciśnienie 999 hPa
Widzialność: 2700 m
zamglenie

METAR: LSZA 260550Z AUTO VRB03KT 2700 BR NSC 05/05 Q0999

czas: 07:07 (06:07 UTC)

Prognoza

Raport powstał 42 minut temu, godzina 05:25 UTC
Prognoza ważna od 26 godzina 06 UTC do 26 godzina 15 UTC
Wiatr 3 kt z kierunków zmiennych
Widzialność: 3000 m
Mało chmury na wysokości 3500 ft
zamglenie
Stopniowe zmiany
od 26 godzina 06 UTC do 26 godzina 07 UTC
Widzialność: 8000 m
Stopniowe zmiany
od 26 godzina 12 UTC do 26 godzina 15 UTC
Wiatr 12 kt od północ w porywach dochodzący do 25 kt

TAF: LSZA 260525Z 2606/2615 VRB03KT 3000 BR FEW035 BECMG 2606/2607 8000 BECMG 2612/2615 01012G25KT

Obserwacja i prognoza pogody dla ponad 4000 lotnisk (raport METAR i TAF).

Dostępne stacje oznaczono żółtymi i czerwonymi punktami na mapie.

Najedź kursorem aby zobaczyć nazwę stacji.

Kliknij aby zobaczyć obserwacje i prognozy pogody.

Aby zmienić mapę: kliknij na zielony przycisk z czarnym krzyżykiem, aby powiększyć; na zielony przycisk z myślnikiem, aby pomniejszyć; na zielone strzałki, aby przejść do map sąsiednich.


METAR-TAF: